createdAt,value
2018-06-12T00:01:15.646Z,48.60
2018-06-12T00:04:18.611Z,56.00
2018-06-12T00:07:20.695Z,60.97
2018-06-12T00:10:22.739Z,58.67
2018-06-12T00:13:24.806Z,60.27
2018-06-12T00:16:26.765Z,65.20
2018-06-12T00:19:28.842Z,64.33
2018-06-12T00:22:31.911Z,59.90
2018-06-12T00:25:34.045Z,56.57
2018-06-12T00:28:36.074Z,59.80
2018-06-12T00:31:38.178Z,56.47
2018-06-12T00:34:40.215Z,55.77
2018-06-12T00:37:42.283Z,53.93
2018-06-12T00:40:45.362Z,52.47
2018-06-12T00:43:47.463Z,57.43
2018-06-12T00:46:50.443Z,54.23
2018-06-12T00:49:52.522Z,60.33
2018-06-12T00:52:54.578Z,53.43
2018-06-12T00:55:59.131Z,51.77
2018-06-12T00:59:02.317Z,54.87
2018-06-12T01:02:05.406Z,52.07
2018-06-12T01:05:07.443Z,53.83
2018-06-12T01:08:09.523Z,51.27
2018-06-12T01:11:11.601Z,52.83
2018-06-12T01:14:13.706Z,53.00
2018-06-12T01:17:15.745Z,46.83
2018-06-12T01:20:17.799Z,39.17
2018-06-12T01:23:19.771Z,34.93
2018-06-12T01:26:21.843Z,43.97
2018-06-12T01:29:23.922Z,40.37
2018-06-12T01:32:25.975Z,37.83
2018-06-12T01:35:28.078Z,38.63
2018-06-12T01:38:30.107Z,32.97
2018-06-12T01:41:32.939Z,36.07
2018-06-12T01:44:34.955Z,32.20
2018-06-12T01:47:37.040Z,32.57
2018-06-12T01:50:39.094Z,31.30
2018-06-12T01:53:41.185Z,32.47
2018-06-12T01:56:43.231Z,37.37
2018-06-12T01:59:45.195Z,34.27
2018-06-12T02:02:47.292Z,37.90
2018-06-12T02:05:49.347Z,31.30
2018-06-12T02:08:51.415Z,31.97
2018-06-12T02:11:53.484Z,25.47
2018-06-12T02:14:55.544Z,29.20
2018-06-12T02:17:57.629Z,25.33
2018-06-12T02:20:59.588Z,26.90
2018-06-12T02:24:02.235Z,27.33
2018-06-12T02:27:04.244Z,28.17
2018-06-12T02:30:06.336Z,28.27
2018-06-12T02:33:08.360Z,31.93
2018-06-12T02:36:10.450Z,31.43
2018-06-12T02:39:12.611Z,31.93
2018-06-12T02:42:14.675Z,35.50
2018-06-12T02:45:16.755Z,28.17
2018-06-12T02:48:18.803Z,31.20
2018-06-12T02:51:20.885Z,33.23
2018-06-12T02:54:22.868Z,33.03
2018-06-12T02:57:24.928Z,31.27
2018-06-12T03:00:27.000Z,36.97
2018-06-12T03:03:29.082Z,28.03
2018-06-12T03:06:32.180Z,28.30
2018-06-12T03:09:35.151Z,26.20
2018-06-12T03:12:37.212Z,28.17
2018-06-12T03:15:39.189Z,30.30
2018-06-12T03:18:41.230Z,32.20
2018-06-12T03:21:44.339Z,28.70
2018-06-12T03:24:46.418Z,37.77
2018-06-12T03:27:48.484Z,34.13
2018-06-12T03:30:50.561Z,34.70
2018-06-12T03:33:52.627Z,37.20
2018-06-12T03:36:54.687Z,37.23
2018-06-12T03:39:56.731Z,32.80
2018-06-12T03:42:58.703Z,36.40
2018-06-12T03:46:03.084Z,40.23
2018-06-12T03:49:05.506Z,38.70
2018-06-12T03:52:07.582Z,37.90
2018-06-12T03:55:09.655Z,36.83
2018-06-12T03:58:11.703Z,39.47
2018-06-12T04:01:13.788Z,47.67
2018-06-12T04:04:15.987Z,41.80
2018-06-12T04:07:18.029Z,39.23
2018-06-12T04:10:19.944Z,46.20
2018-06-12T04:13:22.056Z,39.53
2018-06-12T04:16:24.035Z,43.80
2018-06-12T04:19:26.088Z,40.03
2018-06-12T04:22:28.004Z,39.63
2018-06-12T04:25:30.024Z,40.53
2018-06-12T04:28:32.814Z,42.53
2018-06-12T04:31:34.914Z,34.43
2018-06-12T04:34:38.002Z,36.27
2018-06-12T04:37:40.035Z,31.87
2018-06-12T04:40:42.011Z,30.30
2018-06-12T04:43:44.077Z,32.07
2018-06-12T04:46:46.159Z,28.20
2018-06-12T04:49:48.220Z,31.17
2018-06-12T04:52:50.208Z,32.83
2018-06-12T04:55:52.321Z,30.00
2018-06-12T04:58:54.338Z,29.83
2018-06-12T05:01:58.119Z,25.70
2018-06-12T05:05:00.225Z,22.47
2018-06-12T05:08:02.987Z,25.63
2018-06-12T05:11:05.160Z,25.17
2018-06-12T05:14:07.343Z,27.03
2018-06-12T05:17:09.411Z,26.57
2018-06-12T05:20:11.574Z,27.50
2018-06-12T05:23:13.554Z,24.07
2018-06-12T05:26:15.607Z,24.30
2018-06-12T05:29:17.756Z,27.87
2018-06-12T05:32:19.831Z,29.77
2018-06-12T05:35:21.898Z,27.77
2018-06-12T05:38:24.011Z,28.37
2018-06-12T05:41:26.054Z,26.67
2018-06-12T05:44:28.256Z,26.30
2018-06-12T05:47:30.400Z,24.33
2018-06-12T05:50:32.455Z,23.20
2018-06-12T05:53:34.563Z,24.43
2018-06-12T05:56:36.775Z,24.93
2018-06-12T05:59:38.891Z,26.63
2018-06-12T06:02:40.965Z,24.53
2018-06-12T06:05:43.110Z,23.47
2018-06-12T06:08:45.238Z,26.77
2018-06-12T06:11:47.345Z,23.47
2018-06-12T06:14:49.411Z,27.27
2018-06-12T06:17:51.347Z,27.10
2018-06-12T06:20:53.340Z,29.43
2018-06-12T06:23:55.415Z,23.80
2018-06-12T06:26:57.491Z,29.57
2018-06-12T06:30:00.595Z,27.17
2018-06-12T06:33:02.547Z,26.43
2018-06-12T06:36:06.682Z,27.60
2018-06-12T06:39:08.753Z,34.50
2018-06-12T06:42:10.803Z,31.63
2018-06-12T06:45:12.879Z,37.57
2018-06-12T06:48:14.925Z,29.73
2018-06-12T06:51:16.845Z,24.87
2018-06-12T06:54:18.881Z,25.83
2018-06-12T06:57:21.028Z,27.23
2018-06-12T07:00:23.035Z,22.63
2018-06-12T07:03:26.142Z,22.30
2018-06-12T07:06:28.243Z,25.30
2018-06-12T07:09:30.346Z,22.77
2018-06-12T07:12:33.439Z,28.10
2018-06-12T07:15:35.503Z,26.90
2018-06-12T07:18:37.566Z,27.43
2018-06-12T07:21:39.586Z,26.00
2018-06-12T07:24:41.571Z,23.60
2018-06-12T07:27:43.714Z,23.43
2018-06-12T07:30:45.719Z,24.40
2018-06-12T07:33:47.711Z,25.10
2018-06-12T07:36:51.295Z,28.90
2018-06-12T07:39:53.380Z,27.07
2018-06-12T07:42:56.021Z,31.23
2018-06-12T07:45:58.052Z,29.40
2018-06-12T07:49:00.124Z,27.53
2018-06-12T07:52:02.192Z,29.13
2018-06-12T07:55:04.267Z,25.00
2018-06-12T07:58:07.337Z,24.37
2018-06-12T08:01:09.387Z,26.03
2018-06-12T08:04:11.370Z,27.40
2018-06-12T08:07:13.331Z,34.67
2018-06-12T08:10:15.411Z,27.63
2018-06-12T08:13:17.475Z,49.80
2018-06-12T08:16:19.571Z,71.93
2018-06-12T08:19:21.617Z,57.73
2018-06-12T08:22:24.059Z,30.33
2018-06-12T08:25:26.214Z,32.20
2018-06-12T08:28:29.232Z,30.43
2018-06-12T08:31:31.218Z,32.40
2018-06-12T08:34:33.310Z,26.53
2018-06-12T08:37:35.266Z,28.00
2018-06-12T08:40:37.444Z,28.90
2018-06-12T08:43:39.569Z,30.37
2018-06-12T08:46:41.645Z,25.93
2018-06-12T08:49:43.733Z,25.47
2018-06-12T08:52:45.820Z,27.93
2018-06-12T08:55:47.858Z,25.67
2018-06-12T08:58:49.935Z,21.10
2018-06-12T09:01:51.986Z,28.40
2018-06-12T09:04:54.088Z,30.73
2018-06-12T09:07:56.144Z,25.30
2018-06-12T09:10:58.193Z,24.27
2018-06-12T09:14:00.113Z,26.93
2018-06-12T09:17:03.237Z,23.87
2018-06-12T09:20:05.257Z,20.83
2018-06-12T09:23:07.311Z,23.60
2018-06-12T09:26:09.379Z,21.30
2018-06-12T09:29:12.678Z,23.50
2018-06-12T09:32:14.731Z,27.73
2018-06-12T09:35:16.824Z,28.03
2018-06-12T09:38:18.805Z,29.87
2018-06-12T09:41:20.855Z,27.20
2018-06-12T09:44:22.905Z,27.03
2018-06-12T09:47:25.001Z,26.10
2018-06-12T09:50:27.067Z,26.57
2018-06-12T09:53:29.119Z,30.50
2018-06-12T09:56:31.216Z,23.87
2018-06-12T09:59:33.246Z,19.87
2018-06-12T10:02:35.323Z,19.00
2018-06-12T10:05:37.416Z,19.17
2018-06-12T10:08:39.450Z,21.77
2018-06-12T10:11:42.574Z,20.77
2018-06-12T10:14:44.877Z,19.30
2018-06-12T10:17:46.881Z,24.40
2018-06-12T10:20:48.960Z,18.17
2018-06-12T10:23:51.019Z,18.73
2018-06-12T10:26:53.100Z,20.47
2018-06-12T10:29:55.183Z,20.27
2018-06-12T10:32:57.343Z,19.17
2018-06-12T10:35:59.444Z,23.60
2018-06-12T10:39:02.132Z,25.27
2018-06-12T10:42:04.288Z,25.20
2018-06-12T10:45:06.326Z,27.70
2018-06-12T10:48:09.445Z,24.83
2018-06-12T10:51:13.542Z,25.27
2018-06-12T10:54:15.598Z,26.90
2018-06-12T10:57:17.595Z,22.67
2018-06-12T11:00:19.560Z,25.77
2018-06-12T11:03:21.608Z,22.30
2018-06-12T11:06:23.682Z,20.67
2018-06-12T11:09:25.661Z,20.73
2018-06-12T11:12:27.717Z,21.50
2018-06-12T11:15:31.444Z,16.80
2018-06-12T11:18:33.479Z,18.90
2018-06-12T11:21:35.576Z,19.23
2018-06-12T11:24:37.595Z,17.90
2018-06-12T11:27:39.573Z,15.37
2018-06-12T11:30:43.726Z,15.67
2018-06-12T11:33:45.791Z,13.77
2018-06-12T11:36:47.876Z,13.97
2018-06-12T11:39:50.029Z,12.33
2018-06-12T11:42:52.067Z,11.60
2018-06-12T11:45:54.131Z,11.73
2018-06-12T11:48:56.118Z,12.10
2018-06-12T11:51:58.089Z,11.97
2018-06-12T11:55:01.202Z,10.87
2018-06-12T11:58:03.468Z,11.27
2018-06-12T12:01:05.587Z,12.60
2018-06-12T12:04:07.587Z,15.17
2018-06-12T12:07:09.679Z,12.77
2018-06-12T12:10:11.629Z,13.17
2018-06-12T12:13:13.667Z,13.63
2018-06-12T12:16:15.619Z,14.80
2018-06-12T12:19:18.774Z,13.93
2018-06-12T12:22:20.821Z,14.20
2018-06-12T12:25:24.939Z,15.23
2018-06-12T12:28:27.029Z,15.87
2018-06-12T12:31:29.131Z,15.17
2018-06-12T12:34:32.199Z,15.43
2018-06-12T12:37:34.458Z,16.07
2018-06-12T12:40:36.529Z,15.40
2018-06-12T12:43:38.688Z,15.03
2018-06-12T12:46:40.767Z,16.07
2018-06-12T12:49:44.892Z,14.73
2018-06-12T12:52:46.947Z,14.90
2018-06-12T12:55:49.106Z,14.10
2018-06-12T12:58:51.149Z,14.73
2018-06-12T13:01:53.103Z,16.17
2018-06-12T13:04:55.183Z,15.83
2018-06-12T13:07:57.273Z,14.17
2018-06-12T13:10:59.346Z,13.30
2018-06-12T13:14:02.200Z,14.77
2018-06-12T13:17:04.218Z,13.40
2018-06-12T13:20:06.681Z,13.73
2018-06-12T13:23:08.891Z,12.17
2018-06-12T13:26:10.919Z,12.70
2018-06-12T13:29:12.990Z,10.53
2018-06-12T13:32:15.298Z,10.07
2018-06-12T13:35:17.448Z,9.57
2018-06-12T13:38:19.502Z,10.20
2018-06-12T13:41:21.600Z,8.90
2018-06-12T13:44:23.971Z,8.80
2018-06-12T13:47:26.032Z,8.53
2018-06-12T13:50:28.943Z,10.33
2018-06-12T13:53:31.994Z,10.60
2018-06-12T13:56:34.050Z,11.70
2018-06-12T13:59:36.253Z,12.77
2018-06-12T14:02:38.323Z,11.90
2018-06-12T14:05:40.493Z,11.53
2018-06-12T14:08:42.559Z,12.00
2018-06-12T14:11:44.615Z,11.43
2018-06-12T14:14:46.808Z,10.77
2018-06-12T14:17:48.909Z,9.93
2018-06-12T14:20:50.940Z,11.00
2018-06-12T14:23:53.180Z,11.57
2018-06-12T14:26:55.239Z,11.50
2018-06-12T14:29:57.348Z,12.77
2018-06-12T14:32:59.388Z,15.10
2018-06-12T14:36:02.490Z,15.13
2018-06-12T14:39:07.364Z,13.40
2018-06-12T14:42:09.376Z,16.57
2018-06-12T14:45:11.586Z,13.47
2018-06-12T14:48:13.645Z,14.67
2018-06-12T14:51:15.696Z,14.17
2018-06-12T14:54:17.758Z,15.47
2018-06-12T14:57:19.869Z,13.87
2018-06-12T15:00:21.853Z,14.13
2018-06-12T15:03:24.901Z,14.07
2018-06-12T15:06:26.972Z,13.63
2018-06-12T15:09:29.068Z,14.80
2018-06-12T15:12:32.268Z,13.33
2018-06-12T15:15:34.425Z,14.40
2018-06-12T15:18:36.475Z,14.43
2018-06-12T15:21:38.542Z,15.23
2018-06-12T15:24:41.653Z,17.10
2018-06-12T15:27:43.692Z,16.40
2018-06-12T15:30:45.868Z,16.20
2018-06-12T15:33:47.940Z,17.10
2018-06-12T15:36:50.025Z,19.73
2018-06-12T15:39:52.174Z,16.90
2018-06-12T15:42:54.366Z,19.10
2018-06-12T15:45:56.416Z,16.50
2018-06-12T15:48:58.403Z,15.67
2018-06-12T15:52:00.466Z,15.77
2018-06-12T15:55:03.562Z,16.13
2018-06-12T15:58:05.756Z,16.53
2018-06-12T16:01:08.830Z,15.83
2018-06-12T16:04:11.943Z,15.47
2018-06-12T16:07:13.985Z,16.97
2018-06-12T16:10:16.031Z,20.07
2018-06-12T16:13:18.002Z,14.10
2018-06-12T16:16:21.136Z,16.17
2018-06-12T16:19:23.217Z,15.53
2018-06-12T16:22:25.276Z,14.87
2018-06-12T16:25:27.411Z,12.73
2018-06-12T16:28:30.618Z,15.13
2018-06-12T16:31:32.677Z,12.23
2018-06-12T16:34:34.736Z,12.17
2018-06-12T16:37:36.912Z,11.93
2018-06-12T16:40:38.999Z,12.83
2018-06-12T16:43:41.151Z,17.37
2018-06-12T16:46:43.230Z,10.47
2018-06-12T16:49:45.279Z,10.53
2018-06-12T16:52:47.359Z,13.47
2018-06-12T16:55:49.445Z,10.93
2018-06-12T16:58:51.434Z,9.93
2018-06-12T17:01:53.571Z,11.90
2018-06-12T17:04:55.646Z,18.27
2018-06-12T17:07:57.780Z,9.60
2018-06-12T17:11:00.219Z,11.10
2018-06-12T17:14:02.597Z,10.47
2018-06-12T17:17:04.867Z,9.30
2018-06-12T17:20:06.892Z,9.00
2018-06-12T17:23:08.843Z,11.63
2018-06-12T17:26:10.971Z,9.30
2018-06-12T17:29:13.096Z,12.40
2018-06-12T17:32:15.236Z,12.03
2018-06-12T17:35:17.316Z,9.17
2018-06-12T17:38:19.471Z,9.57
2018-06-12T17:41:21.626Z,9.10
2018-06-12T17:44:23.708Z,10.67
2018-06-12T17:47:25.856Z,8.33
2018-06-12T17:50:27.955Z,12.30
2018-06-12T17:53:31.326Z,10.63
2018-06-12T17:56:33.287Z,10.67
2018-06-12T17:59:35.326Z,8.23
2018-06-12T18:02:37.416Z,9.13
2018-06-12T18:05:39.462Z,10.13
2018-06-12T18:08:41.399Z,9.40
2018-06-12T18:11:43.531Z,9.10
2018-06-12T18:14:45.903Z,8.60
2018-06-12T18:17:48.052Z,9.83
2018-06-12T18:20:50.159Z,9.70
2018-06-12T18:23:52.148Z,9.67
2018-06-12T18:26:55.347Z,10.13
2018-06-12T18:29:57.323Z,8.20
2018-06-12T18:32:59.428Z,8.57
2018-06-12T18:36:01.476Z,9.87
2018-06-12T18:39:06.690Z,15.03
2018-06-12T18:42:09.204Z,7.93
2018-06-12T18:45:12.108Z,9.10
2018-06-12T18:48:14.259Z,7.33
2018-06-12T18:51:16.612Z,7.00
2018-06-12T18:54:18.679Z,9.10
2018-06-12T18:57:20.639Z,9.60
2018-06-12T19:00:22.763Z,7.97
2018-06-12T19:03:24.821Z,11.80
2018-06-12T19:06:26.882Z,8.47
2018-06-12T19:09:28.957Z,7.10
2018-06-12T19:12:30.994Z,9.47
2018-06-12T19:15:33.098Z,6.83
2018-06-12T19:18:35.140Z,10.47
2018-06-12T19:21:39.294Z,8.13
2018-06-12T19:24:41.562Z,9.27
2018-06-12T19:27:43.563Z,9.13
2018-06-12T19:30:46.612Z,6.80
2018-06-12T19:33:48.665Z,7.47
2018-06-12T19:36:50.739Z,8.67
2018-06-12T19:39:52.818Z,11.43
2018-06-12T19:42:56.122Z,9.53
2018-06-12T19:45:58.159Z,8.70
2018-06-12T19:49:00.155Z,10.90
2018-06-12T19:52:02.206Z,9.27
2018-06-12T19:55:04.332Z,10.23
2018-06-12T19:58:06.339Z,8.80
2018-06-12T20:01:08.449Z,7.10
2018-06-12T20:04:10.443Z,10.53
2018-06-12T20:07:12.683Z,7.87
2018-06-12T20:10:15.267Z,8.57
2018-06-12T20:13:17.223Z,10.63
2018-06-12T20:16:19.729Z,10.03
2018-06-12T20:19:22.279Z,8.80
2018-06-12T20:22:25.835Z,14.00
2018-06-12T20:25:28.262Z,7.37
2018-06-12T20:28:30.300Z,8.60
2018-06-12T20:31:32.882Z,7.83
2018-06-12T20:34:35.281Z,6.67
2018-06-12T20:37:37.314Z,9.40
2018-06-12T20:40:39.401Z,8.57
2018-06-12T20:43:42.897Z,7.83
2018-06-12T20:46:45.447Z,6.90
2018-06-12T20:49:47.958Z,8.13
2018-06-12T20:52:50.407Z,7.43
2018-06-12T20:55:53.016Z,6.43
2018-06-12T20:58:56.443Z,6.20
2018-06-12T21:01:58.454Z,8.77
2018-06-12T21:05:01.008Z,8.10
2018-06-12T21:08:03.059Z,7.27
2018-06-12T21:11:06.022Z,8.10
2018-06-12T21:14:09.562Z,10.50
2018-06-12T21:17:12.125Z,7.20
2018-06-12T21:20:15.128Z,6.80
2018-06-12T21:23:17.171Z,8.97
2018-06-12T21:26:21.642Z,7.00
2018-06-12T21:29:25.121Z,7.50
2018-06-12T21:32:27.720Z,7.57
2018-06-12T21:35:30.258Z,10.13
2018-06-12T21:38:32.610Z,8.90
2018-06-12T21:41:35.235Z,8.07
2018-06-12T21:44:37.686Z,7.67
2018-06-12T21:47:39.760Z,12.90
2018-06-12T21:50:42.287Z,10.30
2018-06-12T21:53:44.711Z,6.40
2018-06-12T21:56:46.776Z,10.97
2018-06-12T21:59:49.307Z,10.60
2018-06-12T22:02:51.448Z,9.97
2018-06-12T22:05:53.835Z,8.73
2018-06-12T22:08:57.337Z,9.37
2018-06-12T22:11:59.486Z,7.80
2018-06-12T22:15:01.939Z,7.33
2018-06-12T22:18:04.956Z,7.40
2018-06-12T22:21:07.530Z,8.93
2018-06-12T22:24:09.487Z,7.60
2018-06-12T22:27:12.511Z,7.93
2018-06-12T22:30:14.949Z,8.83
2018-06-12T22:33:17.057Z,9.50
2018-06-12T22:36:19.619Z,9.27
2018-06-12T22:39:22.119Z,10.13
2018-06-12T22:42:25.641Z,8.00
2018-06-12T22:45:28.229Z,6.30
2018-06-12T22:48:30.672Z,7.90
2018-06-12T22:51:33.158Z,8.07
2018-06-12T22:54:35.829Z,6.40
2018-06-12T22:57:38.229Z,6.40
2018-06-12T23:00:40.777Z,7.03
2018-06-12T23:03:43.279Z,6.27
2018-06-12T23:06:45.844Z,8.40
2018-06-12T23:09:48.195Z,8.70
2018-06-12T23:12:50.134Z,7.50
2018-06-12T23:15:52.266Z,9.33
2018-06-12T23:18:54.321Z,8.90
2018-06-12T23:21:57.563Z,11.03
2018-06-12T23:24:59.704Z,7.30
2018-06-12T23:28:01.739Z,6.63
2018-06-12T23:31:03.815Z,6.33
2018-06-12T23:34:06.163Z,6.63
2018-06-12T23:37:08.279Z,5.33
2018-06-12T23:40:11.371Z,5.73
2018-06-12T23:43:13.407Z,6.43
2018-06-12T23:46:15.481Z,8.37
2018-06-12T23:49:17.608Z,8.23
2018-06-12T23:52:19.615Z,8.17
2018-06-12T23:55:21.695Z,11.03
2018-06-12T23:58:23.775Z,7.07
